Glendive, MT

9:58 PM MDT on July 26, 2017 (GMT -0600)
Dawson Community

Weather History for KGDV - November, 2014

Change the Weather History Date:

Friday, November 7, 2014

  Actual Average Record
Temperature  
Mean Temperature 42 °F -  
Max Temperature 60 °F 41 °F 73 °F (1999)
Min Temperature 24 °F 21 °F 1 °F (2003)
Degree Days  
Heating Degree Days 23    
Moisture  
Dew Point 33 °F    
Average Humidity 60    
Maximum Humidity 86    
Minimum Humidity 39    
Precipitation  
Precipitation 0.00 in - - ()
Sea Level Pressure  
Sea Level Pressure 30.02 in    
Wind  
Wind Speed 16 mph (WNW)    
Max Wind Speed 38 mph    
Max Gust Speed 45 mph    
Visibility 10 miles    
Events      
Averages and records for this station are not official NWS values.
T = Trace of Precipitation, MM = Missing Value Source: NWS Daily Summary

Daily Weather History Graph

Daily Weather History Graph

Search for Another Location

Airport or City:

Trip Planner

Search our weather history database for the weather conditions in past years. The results will help you decide how hot, cold, wet, or windy it might be!

Date:

Astronomy

Nov. 07, 2014 Rise Set
Actual Time 6:51 AM MST 4:33 PM MST
Civil Twilight 6:18 AM MST 5:06 PM MST
Nautical Twilight 5:42 AM MST 5:42 PM MST
Astronomical Twilight 5:06 AM MST 6:18 PM MST
Moon 5:27 PM MST (11/7) 7:30 AM MST (11/7)
Length of Visible Light 10h 47m
Length of Day
9h 42m
Full, 99% of the Moon is Illuminated
Nov 7
Full
Nov 14
Last Quarter
Nov 22
New
Nov 29
First Quarter
Dec 6
Full

Hourly Weather History & Observations

Time (MST) Temp. Windchill Dew Point Humidity Pressure Visibility Wind Dir Wind Speed Gust Speed Precip Events Conditions
12:15 AM 48.2 °F - 32.0 °F 54% 29.72 in 10.0 mi SSE 5.8 mph - N/A   Clear
12:35 AM 46.4 °F 45.2 °F 33.8 °F 62% 29.72 in 10.0 mi SE 3.5 mph - N/A   Clear
12:55 AM 46.4 °F 43.5 °F 32.0 °F 57% 29.72 in 10.0 mi SSE 5.8 mph - N/A   Clear
1:15 AM 44.6 °F 41.4 °F 32.0 °F 61% 29.71 in 10.0 mi SE 5.8 mph - N/A   Clear
1:35 AM 46.4 °F 43.5 °F 33.8 °F 62% 29.71 in 10.0 mi South 5.8 mph - N/A   Clear
1:55 AM 48.2 °F - 33.8 °F 58% 29.73 in 10.0 mi SW 8.1 mph - N/A   Scattered Clouds
2:15 AM 59.0 °F - 35.6 °F 42% 29.72 in 10.0 mi WNW 38.0 mph 44.9 mph N/A   Partly Cloudy
2:35 AM 60.8 °F - 37.4 °F 42% 29.72 in 10.0 mi WNW 25.3 mph 36.8 mph N/A   Scattered Clouds
2:55 AM 60.8 °F - 37.4 °F 42% 29.71 in 10.0 mi West 23.0 mph 31.1 mph N/A   Mostly Cloudy
3:15 AM 60.8 °F - 37.4 °F 42% 29.72 in 10.0 mi West 20.7 mph 32.2 mph N/A   Mostly Cloudy
3:35 AM 59.0 °F - 37.4 °F 45% 29.72 in 10.0 mi West 20.7 mph 27.6 mph N/A   Mostly Cloudy
3:55 AM 60.8 °F - 35.6 °F 39% 29.73 in 10.0 mi West 24.2 mph 39.1 mph N/A   Mostly Cloudy
4:15 AM 60.8 °F - 35.6 °F 39% 29.73 in 10.0 mi West 23.0 mph 33.4 mph N/A   Mostly Cloudy
4:35 AM 59.0 °F - 35.6 °F 42% 29.74 in 10.0 mi West 21.9 mph 29.9 mph N/A   Overcast
4:55 AM 59.0 °F - 35.6 °F 42% 29.74 in 10.0 mi West 21.9 mph 29.9 mph N/A   Mostly Cloudy
5:15 AM 57.2 °F - 35.6 °F 44% 29.75 in 10.0 mi West 17.3 mph 25.3 mph N/A   Partly Cloudy
5:35 AM 55.4 °F - 35.6 °F 47% 29.76 in 10.0 mi West 15.0 mph - N/A   Clear
5:55 AM 55.4 °F - 35.6 °F 47% 29.77 in 10.0 mi West 17.3 mph 23.0 mph N/A   Clear
6:15 AM 55.4 °F - 35.6 °F 47% 29.78 in 10.0 mi WNW 21.9 mph 28.8 mph N/A   Clear
6:35 AM 55.4 °F - 35.6 °F 47% 29.79 in 10.0 mi WNW 24.2 mph 33.4 mph N/A   Scattered Clouds
6:55 AM 55.4 °F - 35.6 °F 47% 29.82 in 10.0 mi WNW 31.1 mph 41.4 mph N/A   Mostly Cloudy
7:15 AM 55.4 °F - 37.4 °F 51% 29.83 in 10.0 mi WNW 26.5 mph 33.4 mph N/A   Partly Cloudy
7:35 AM 53.6 °F - 39.2 °F 58% 29.85 in 10.0 mi WNW 26.5 mph 32.2 mph N/A   Mostly Cloudy
7:55 AM 51.8 °F - 39.2 °F 62% 29.87 in 10.0 mi WNW 18.4 mph 27.6 mph N/A   Mostly Cloudy
8:15 AM 53.6 °F - 39.2 °F 58% 29.89 in 10.0 mi WNW 21.9 mph 31.1 mph N/A   Overcast
8:35 AM 51.8 °F - 39.2 °F 62% 29.91 in 10.0 mi NW 24.2 mph 34.5 mph N/A   Mostly Cloudy
8:55 AM 51.8 °F - 37.4 °F 58% 29.92 in 10.0 mi NW 26.5 mph 33.4 mph N/A   Scattered Clouds
9:15 AM 50.0 °F - 37.4 °F 62% 29.95 in 10.0 mi NW 21.9 mph 29.9 mph N/A   Partly Cloudy
9:35 AM 51.8 °F - 39.2 °F 62% 29.97 in 10.0 mi NW 21.9 mph 29.9 mph N/A   Mostly Cloudy
9:55 AM 50.0 °F - 41.0 °F 71% 29.98 in 10.0 mi NW 16.1 mph 27.6 mph N/A   Mostly Cloudy
10:15 AM 51.8 °F - 41.0 °F 67% 29.99 in 10.0 mi WNW 20.7 mph 25.3 mph N/A   Mostly Cloudy
10:35 AM 51.8 °F - 39.2 °F 62% 30.01 in 10.0 mi NW 23.0 mph 28.8 mph N/A   Mostly Cloudy
10:55 AM 50.0 °F - 39.2 °F 66% 30.02 in 10.0 mi NW 20.7 mph 31.1 mph N/A   Overcast
11:15 AM 50.0 °F - 39.2 °F 66% 30.02 in 10.0 mi NW 21.9 mph 32.2 mph N/A   Mostly Cloudy
11:35 AM 51.8 °F - 39.2 °F 62% 30.03 in 10.0 mi WNW 25.3 mph 31.1 mph N/A   Mostly Cloudy
11:55 AM 51.8 °F - 39.2 °F 62% 30.03 in 10.0 mi WNW 21.9 mph 33.4 mph N/A   Scattered Clouds
12:15 PM 51.8 °F - 37.4 °F 58% 30.04 in 10.0 mi WNW 31.1 mph 34.5 mph N/A   Partly Cloudy
12:35 PM 53.6 °F - 37.4 °F 54% 30.05 in 10.0 mi NW 25.3 mph 32.2 mph N/A   Mostly Cloudy
12:55 PM 51.8 °F - 35.6 °F 54% 30.07 in 10.0 mi NW 19.6 mph 33.4 mph N/A   Overcast
1:15 PM 51.8 °F - 33.8 °F 50% 30.08 in 10.0 mi WNW 24.2 mph 33.4 mph N/A   Mostly Cloudy
1:35 PM 50.0 °F - 33.8 °F 54% 30.09 in 10.0 mi NW 24.2 mph 31.1 mph N/A   Mostly Cloudy
1:55 PM 48.2 °F - 33.8 °F 58% 30.10 in 10.0 mi NW 26.5 mph 32.2 mph N/A   Overcast
2:15 PM 48.2 °F - 33.8 °F 58% 30.11 in 10.0 mi NW 26.5 mph 34.5 mph N/A   Overcast
2:35 PM 48.2 °F - 33.8 °F 58% 30.13 in 10.0 mi WNW 23.0 mph 29.9 mph N/A   Mostly Cloudy
2:55 PM 48.2 °F - 32.0 °F 54% 30.15 in 10.0 mi NNW 20.7 mph 29.9 mph N/A   Mostly Cloudy
3:15 PM 46.4 °F 39.2 °F 32.0 °F 57% 30.16 in 10.0 mi NW 18.4 mph 24.2 mph N/A   Partly Cloudy
3:35 PM 46.4 °F 38.3 °F 32.0 °F 57% 30.16 in 10.0 mi NW 23.0 mph - N/A   Clear
3:55 PM 44.6 °F 35.5 °F 30.2 °F 57% 30.17 in 10.0 mi NW 25.3 mph 29.9 mph N/A   Clear
4:15 PM 44.6 °F 36.1 °F 30.2 °F 57% 30.19 in 10.0 mi NW 21.9 mph 28.8 mph N/A   Clear
4:35 PM 44.6 °F 36.4 °F 30.2 °F 57% 30.19 in 10.0 mi NW 20.7 mph 28.8 mph N/A   Partly Cloudy
4:55 PM 44.6 °F 38.1 °F 30.2 °F 57% 30.20 in 10.0 mi NW 13.8 mph - N/A   Mostly Cloudy
5:15 PM 42.8 °F 35.4 °F 30.2 °F 61% 30.22 in 10.0 mi NW 15.0 mph 20.7 mph N/A   Partly Cloudy
5:35 PM 41.0 °F 35.2 °F 28.4 °F 61% 30.23 in 10.0 mi NW 9.2 mph - N/A   Clear
5:55 PM 39.2 °F 32.0 °F 28.4 °F 65% 30.24 in 10.0 mi NW 11.5 mph - N/A   Partly Cloudy
6:15 PM 39.2 °F 33.6 °F 28.4 °F 65% 30.26 in 10.0 mi NW 8.1 mph - N/A   Clear
6:35 PM 37.4 °F 32.1 °F 28.4 °F 70% 30.26 in 10.0 mi NW 6.9 mph - N/A   Clear
6:55 PM 35.6 °F 29.2 °F 26.6 °F 70% 30.28 in 10.0 mi NNW 8.1 mph - N/A   Clear
7:15 PM 35.6 °F 27.5 °F 26.6 °F 70% 30.27 in 10.0 mi NNW 11.5 mph - N/A   Clear
7:35 PM 35.6 °F 27.5 °F 26.6 °F 70% 30.28 in 10.0 mi NNW 11.5 mph - N/A   Clear
7:55 PM 33.8 °F 24.8 °F 26.6 °F 75% 30.29 in 10.0 mi NNW 12.7 mph - N/A   Scattered Clouds
8:15 PM 33.8 °F 25.8 °F 24.8 °F 70% 30.30 in 10.0 mi NNW 10.4 mph - N/A   Partly Cloudy
8:35 PM 32.0 °F 24.2 °F 24.8 °F 75% 30.30 in 10.0 mi NNW 9.2 mph - N/A   Clear
8:55 PM 30.2 °F 24.3 °F 23.0 °F 75% 30.30 in 10.0 mi NNW 5.8 mph - N/A   Clear
9:15 PM 28.4 °F 23.3 °F 21.2 °F 74% 30.30 in 10.0 mi West 4.6 mph - N/A   Clear
9:35 PM 26.6 °F 20.0 °F 21.2 °F 80% 30.30 in 10.0 mi West 5.8 mph - N/A   Clear
9:55 PM 26.6 °F 18.2 °F 21.2 °F 80% 30.31 in 10.0 mi West 8.1 mph - N/A   Clear
10:15 PM 24.8 °F 16.1 °F 21.2 °F 86% 30.31 in 10.0 mi West 8.1 mph - N/A   Clear
10:35 PM 24.8 °F 16.1 °F 19.4 °F 80% 30.31 in 10.0 mi West 8.1 mph - N/A   Clear
10:55 PM 24.8 °F 15.3 °F 21.2 °F 86% 30.30 in 10.0 mi West 9.2 mph - N/A   Clear
11:15 PM 26.6 °F 19.1 °F 23.0 °F 86% 30.29 in 10.0 mi NW 6.9 mph - N/A   Partly Cloudy
11:35 PM 28.4 °F 21.2 °F 24.8 °F 86% 30.29 in 10.0 mi North 6.9 mph - N/A   Mostly Cloudy
11:55 PM 28.4 °F 21.2 °F 24.8 °F 86% 30.29 in 10.0 mi WNW 6.9 mph - N/A   Overcast